Time;durP1;ratioP1;P1;durP2;ratioP2;P2;SDS_P1;SDS_P2;PMS_P1;PMS_P2;Temp;Humidity;BMP_temperature;BMP_pressure;BME280_temperature;BME280_humidity;BME280_pressure;Samples;Min_cycle;Max_cycle;Signal;HPM_P1;HPM_P2
2022/12/23 00:00:28;;;;;;;;;58.60;52.00;;;;;19.40;60.76;95695.78;5044164;28;8850;-60
2022/12/23 00:02:55;;;;;;;;;60.40;52.40;;;;;19.41;60.65;95702.84;5040502;28;8830;-59
2022/12/23 00:05:22;;;;;;;;;63.60;54.20;;;;;19.40;60.38;95693.00;5039990;28;8974;-60
2022/12/23 00:07:49;;;;;;;;;63.00;53.00;;;;;19.40;60.66;95693.00;5045501;28;8865;-61
2022/12/23 00:10:16;;;;;;;;;59.60;52.00;;;;;19.41;60.60;95693.78;5055369;28;8842;-60
2022/12/23 00:15:28;;;;;;;;;60.80;52.60;;;;;19.40;60.48;95706.03;5041123;28;8838;-60
2022/12/23 00:17:55;;;;;;;;;61.20;53.00;;;;;19.38;60.13;95697.38;5046804;28;8880;-60
2022/12/23 00:20:22;;;;;;;;;68.80;58.80;;;;;19.39;60.26;95696.19;5040368;28;8896;-61
2022/12/23 00:23:04;;;;;;;;;62.40;53.80;;;;;19.38;60.15;95700.94;5042912;28;9651;-60
2022/12/23 00:25:45;;;;;;;;;59.20;51.20;;;;;19.38;60.15;95692.63;5041161;28;8953;-60
2022/12/23 00:28:15;;;;;;;;;62.40;54.20;;;;;19.37;60.16;95693.03;5047866;28;9620;-60
2022/12/23 00:31:00;;;;;;;;;60.00;51.20;;;;;19.37;59.99;95702.13;5042231;28;8886;-60
2022/12/23 00:33:30;;;;;;;;;58.80;51.20;;;;;19.37;60.02;95706.88;5041562;28;8830;-61
2022/12/23 00:35:56;;;;;;;;;60.80;51.40;;;;;19.37;59.92;95693.03;5045686;28;8876;-60
2022/12/23 00:44:04;;;;;;;;;65.60;56.80;;;;;19.36;59.77;95689.50;5040421;28;8869;-60
2022/12/23 00:46:31;;;;;;;;;59.00;51.40;;;;;19.36;59.86;95689.50;5042475;28;8867;-61
2022/12/23 00:51:43;;;;;;;;;61.00;52.25;;;;;19.36;59.97;95691.50;5040863;28;9057;-60
2022/12/23 00:54:10;;;;;;;;;58.25;51.25;;;;;19.35;59.78;95685.16;5042287;28;8842;-60
2022/12/23 00:56:37;;;;;;;;;60.20;53.00;;;;;19.36;60.24;95692.28;5041686;28;8883;-61
2022/12/23 00:59:04;;;;;;;;;58.60;51.40;;;;;19.37;59.92;95698.56;5045400;28;9842;-60
2022/12/23 01:07:04;;;;;;;;;58.20;51.20;;;;;19.36;59.83;95691.50;5042706;28;9625;-61
2022/12/23 01:09:32;;;;;;;;;57.80;51.00;;;;;19.35;60.19;95693.47;5044281;28;8832;-60
2022/12/23 01:11:59;;;;;;;;;59.20;52.20;;;;;19.36;59.86;95688.72;5034774;28;8849;-59
2022/12/23 01:14:26;;;;;;;;;58.60;50.80;;;;;19.36;59.70;95691.50;5043780;28;8964;-60
2022/12/23 01:16:53;;;;;;;;;60.20;52.00;;;;;19.35;59.94;95693.47;5045714;28;8970;-60
2022/12/23 01:19:20;;;;;;;;;57.60;50.60;;;;;19.36;59.74;95697.03;5048796;28;8941;-60
2022/12/23 01:21:47;;;;;;;;;60.00;52.20;;;;;19.35;59.75;95701.75;5046356;28;8862;-60
2022/12/23 01:24:14;;;;;;;;;56.40;50.00;;;;;19.36;59.78;95699.78;5032633;28;8877;-60
2022/12/23 01:26:41;;;;;;;;;62.00;53.20;;;;;19.36;59.75;95702.56;5035949;28;8852;-60
2022/12/23 01:29:08;;;;;;;;;59.80;52.40;;;;;19.35;59.75;95707.28;5031586;28;8867;-60
2022/12/23 01:31:34;;;;;;;;;57.00;49.00;;;;;19.35;59.88;95703.75;5048851;28;8838;-61
2022/12/23 01:34:01;;;;;;;;;63.00;54.00;;;;;19.35;59.75;95701.75;5044193;28;8843;-60
2022/12/23 01:36:28;;;;;;;;;61.40;52.60;;;;;19.35;59.76;95696.22;5039616;28;8859;-61
2022/12/23 01:38:56;;;;;;;;;59.20;50.80;;;;;19.35;59.65;95689.94;5040127;28;8834;-60
2022/12/23 01:44:48;;;;;;;;;61.00;52.40;;;;;19.35;59.72;95698.22;5042555;28;8840;-60
2022/12/23 01:47:25;;;;;;;;;58.20;51.20;;;;;19.34;59.72;95691.91;5042162;28;8874;-59
2022/12/23 01:50:15;;;;;;;;;60.60;52.40;;;;;19.35;59.65;95695.47;5031885;28;12035;-60
2022/12/23 01:53:04;;;;;;;;;64.00;55.00;;;;;19.34;59.80;95694.66;5046339;28;8828;-59
2022/12/23 01:55:48;;;;;;;;;58.20;50.60;;;;;19.34;59.79;95702.19;5041734;28;8850;-60
2022/12/23 01:58:50;;;;;;;;;58.80;51.80;;;;;19.34;59.85;95700.19;5044109;28;8842;-60
2022/12/23 02:04:06;;;;;;;;;63.40;54.40;;;;;19.34;59.97;95704.94;5025109;28;9640;-60
2022/12/23 02:09:28;;;;;;;;;58.40;51.80;;;;;19.34;59.66;95696.66;5024765;28;8824;-60
2022/12/23 02:12:23;;;;;;;;;62.00;52.60;;;;;19.35;59.92;95687.94;5025890;28;8858;-60
2022/12/23 02:18:50;;;;;;;;;59.80;52.60;;;;;19.34;59.73;95693.88;5022243;28;8872;-60
2022/12/23 02:21:34;;;;;;;;;58.20;51.60;;;;;19.33;59.67;95686.78;5025061;28;8982;-60
2022/12/23 02:24:01;;;;;;;;;60.80;53.20;;;;;19.34;59.58;95693.88;5023455;28;8814;-60
2022/12/23 02:26:30;;;;;;;;;58.60;51.20;;;;;19.33;59.92;95695.84;5026769;28;8932;-61
2022/12/23 02:29:18;;;;;;;;;62.00;53.40;;;;;19.34;59.72;95696.66;5025083;28;8831;-60
2022/12/23 02:32:19;;;;;;;;;55.00;48.60;;;;;19.34;59.72;95688.34;5027207;28;8830;-61
2022/12/23 02:34:55;;;;;;;;;61.80;53.20;;;;;19.33;59.79;95690.31;4969957;28;8836;-60
2022/12/23 02:37:24;;;;;;;;;62.20;54.00;;;;;19.32;59.56;95694.28;4976072;28;8823;-59
2022/12/23 02:39:51;;;;;;;;;59.40;51.80;;;;;19.32;59.71;95691.53;5000597;28;9591;-60
2022/12/23 02:42:32;;;;;;;;;63.80;55.20;;;;;19.33;59.66;95689.56;5000636;28;8838;-60
2022/12/23 02:45:10;;;;;;;;;61.80;53.80;;;;;19.33;59.73;95692.31;4993911;28;8842;-61
2022/12/23 02:47:46;;;;;;;;;59.20;51.80;;;;;19.33;59.71;95695.09;4996232;28;8855;-62
2022/12/23 02:50:22;;;;;;;;;60.40;52.00;;;;;19.33;59.78;95697.84;5003033;28;9484;-60
2022/12/23 02:52:52;;;;;;;;;62.40;52.20;;;;;19.33;60.03;95690.31;4997581;28;9574;-60
2022/12/23 02:55:28;;;;;;;;;60.40;52.20;;;;;19.33;59.92;95695.09;5003627;28;9072;-60
2022/12/23 02:57:59;;;;;;;;;58.25;51.25;;;;;19.33;60.27;95701.38;5005057;28;8856;-60
2022/12/23 03:00:26;;;;;;;;;59.20;52.00;;;;;19.34;59.94;95702.19;5002494;28;9094;-60
2022/12/23 03:02:53;;;;;;;;;59.00;51.20;;;;;19.33;60.23;95698.63;4996677;28;8952;-60
2022/12/23 03:05:31;;;;;;;;;59.80;52.60;;;;;19.33;59.92;95701.38;4996581;28;9673;-60
2022/12/23 03:08:02;;;;;;;;;60.60;52.80;;;;;19.33;59.82;95693.09;5001400;28;8869;-60
2022/12/23 03:10:41;;;;;;;;;59.40;51.80;;;;;19.33;60.28;95689.56;5003584;28;8868;-60
2022/12/23 03:13:17;;;;;;;;;61.40;53.40;;;;;19.34;60.43;95680.06;5044997;28;8885;-60
2022/12/23 03:16:04;;;;;;;;;62.00;53.00;;;;;19.33;59.82;95678.50;5042200;28;8856;-60
2022/12/23 03:18:31;;;;;;;;;58.40;51.00;;;;;19.33;60.08;95682.03;5043288;28;8847;-61
2022/12/23 03:21:29;;;;;;;;;59.40;52.00;;;;;19.32;59.93;95674.94;5043082;28;8850;-61
2022/12/23 03:24:05;;;;;;;;;58.60;51.60;;;;;19.34;60.36;95669.00;5025115;28;8830;-60
2022/12/23 03:26:44;;;;;;;;;64.60;56.00;;;;;19.33;60.25;95659.16;5025030;28;8825;-59
2022/12/23 03:29:25;;;;;;;;;57.60;50.60;;;;;19.32;60.21;95652.03;5026226;28;8866;-60
2022/12/23 03:31:56;;;;;;;;;64.20;55.00;;;;;19.33;60.08;95650.84;5007209;28;8923;-60
2022/12/23 03:34:28;;;;;;;;;59.40;51.40;;;;;19.32;60.70;95639.00;5030011;28;8850;-60
2022/12/23 03:37:02;;;;;;;;;60.00;51.80;;;;;19.33;60.09;95650.84;5026845;28;8862;-60
2022/12/23 03:39:37;;;;;;;;;63.40;54.60;;;;;19.33;60.22;95642.56;5042251;28;8832;-60
2022/12/23 03:42:22;;;;;;;;;66.00;56.80;;;;;19.34;60.45;95649.66;5025448;28;8931;-59
2022/12/23 03:44:51;;;;;;;;;57.80;51.00;;;;;19.32;59.94;95658.34;5025921;28;8851;-59
2022/12/23 03:47:45;;;;;;;;;66.00;56.20;;;;;19.32;60.01;95661.09;5035846;28;8931;-60
2022/12/23 03:50:16;;;;;;;;;67.60;58.00;;;;;19.33;60.39;95659.16;5025974;28;8814;-60
2022/12/23 03:52:55;;;;;;;;;57.80;51.00;;;;;19.33;60.94;95661.91;5025885;28;9651;-61
2022/12/23 03:55:31;;;;;;;;;65.40;56.00;;;;;19.34;60.90;95655.94;5028673;28;8848;-59
2022/12/23 03:58:23;;;;;;;;;61.60;53.40;;;;;19.33;60.18;95650.84;5026869;28;8928;-60
2022/12/23 04:00:59;;;;;;;;;67.20;57.20;;;;;19.32;60.83;95641.75;5035888;28;8842;-61
2022/12/23 04:04:02;;;;;;;;;68.20;57.60;;;;;19.32;60.82;95643.75;5045966;28;8851;-61
2022/12/23 04:06:38;;;;;;;;;67.00;57.20;;;;;19.33;60.81;95648.09;5042887;28;8858;-61
2022/12/23 04:09:06;;;;;;;;;67.00;58.00;;;;;19.32;60.82;95650.06;5041059;28;9646;-60
2022/12/23 04:11:35;;;;;;;;;67.60;57.20;;;;;19.32;60.70;95650.06;5046422;28;8875;-60
2022/12/23 04:14:02;;;;;;;;;63.60;55.00;;;;;19.32;60.68;95647.28;5044380;28;8829;-60
2022/12/23 04:16:29;;;;;;;;;67.40;57.40;;;;;19.32;60.89;95647.28;5046732;28;8842;-60
2022/12/23 04:18:56;;;;;;;;;61.40;52.60;;;;;19.32;61.18;95640.97;5045998;28;9956;-60
2022/12/23 04:21:23;;;;;;;;;67.00;57.80;;;;;19.32;60.47;95641.75;5044981;28;9036;-60
2022/12/23 04:23:50;;;;;;;;;65.00;56.00;;;;;19.30;60.77;95639.41;5038418;28;8917;-60
2022/12/23 04:26:17;;;;;;;;;62.20;53.60;;;;;19.32;61.04;95641.75;5049941;28;8839;-60
2022/12/23 04:28:43;;;;;;;;;58.00;50.80;;;;;19.33;60.73;95637.03;5043614;28;8843;-59
2022/12/23 04:31:10;;;;;;;;;65.20;56.40;;;;;19.31;60.69;95634.69;5039304;28;8881;-60
2022/12/23 04:33:37;;;;;;;;;64.00;55.60;;;;;19.33;60.46;95634.25;5046768;28;8912;-60
2022/12/23 04:36:04;;;;;;;;;62.60;53.80;;;;;19.32;60.87;95632.69;5042279;28;8873;-59
2022/12/23 04:38:31;;;;;;;;;61.00;52.20;;;;;19.32;60.51;95629.94;5046447;28;8837;-60
2022/12/23 04:40:58;;;;;;;;;59.40;51.80;;;;;19.30;60.54;95639.41;5046621;28;8833;-60
2022/12/23 04:43:25;;;;;;;;;63.20;53.80;;;;;19.30;60.33;95633.88;5039679;28;8853;-60
2022/12/23 04:45:52;;;;;;;;;63.20;54.40;;;;;19.32;60.79;95632.69;5044718;28;8870;-60
2022/12/23 04:48:19;;;;;;;;;66.20;57.00;;;;;19.30;60.63;95622.06;5045507;28;8844;-60
2022/12/23 04:50:46;;;;;;;;;68.20;58.00;;;;;19.30;60.47;95620.06;5043884;28;8869;-60
2022/12/23 04:53:13;;;;;;;;;66.00;56.00;;;;;19.32;60.82;95616.09;5039854;28;8842;-60
2022/12/23 04:55:40;;;;;;;;;67.40;57.80;;;;;19.32;60.90;95613.34;5046269;28;8959;-60
2022/12/23 04:58:07;;;;;;;;;63.40;55.00;;;;;19.31;60.64;95609.81;5042963;28;8854;-60
2022/12/23 05:00:33;;;;;;;;;62.60;54.40;;;;;19.32;60.95;95610.56;5039968;28;8851;-60
2022/12/23 05:03:05;;;;;;;;;60.40;52.40;;;;;19.32;60.90;95613.34;5036928;28;8833;-60
2022/12/23 05:05:32;;;;;;;;;64.60;55.40;;;;;19.30;60.77;95611.78;5041452;28;8858;-60
2022/12/23 05:08:04;;;;;;;;;58.80;51.00;;;;;19.30;60.23;95606.25;5047816;28;8839;-60
2022/12/23 05:10:31;;;;;;;;;67.80;58.00;;;;;19.30;60.96;95606.25;5045151;28;8826;-60
2022/12/23 05:12:58;;;;;;;;;64.20;55.00;;;;;19.30;60.94;95608.25;5045558;28;8866;-60
2022/12/23 05:15:25;;;;;;;;;65.40;56.00;;;;;19.31;60.61;95615.34;5043145;28;8839;-60
2022/12/23 05:17:51;;;;;;;;;66.20;56.40;;;;;19.31;60.81;95607.03;5042800;28;8871;-60
2022/12/23 05:20:18;;;;;;;;;64.60;55.20;;;;;19.30;60.73;95602.72;5044899;28;8852;-60
2022/12/23 05:22:45;;;;;;;;;59.80;52.00;;;;;19.30;60.82;95595.19;5045802;28;8839;-60
2022/12/23 05:25:12;;;;;;;;;66.40;57.20;;;;;19.29;60.89;95593.63;5036617;28;8919;-60
2022/12/23 05:27:39;;;;;;;;;60.80;52.60;;;;;19.30;60.74;95597.94;5036153;28;8892;-60
2022/12/23 05:30:06;;;;;;;;;67.80;58.40;;;;;19.30;60.48;95600.72;5038732;28;8833;-60
2022/12/23 05:32:33;;;;;;;;;65.20;56.20;;;;;19.30;60.71;95597.19;5044592;28;9606;-58
2022/12/23 05:35:00;;;;;;;;;60.60;52.60;;;;;19.31;60.81;95604.28;5049358;28;8826;-59
2022/12/23 05:37:27;;;;;;;;;67.80;58.00;;;;;19.30;59.82;95600.72;5040049;28;8857;-59
2022/12/23 05:39:53;;;;;;;;;68.00;58.40;;;;;19.34;60.06;95599.88;5041482;28;8833;-59
2022/12/23 05:42:20;;;;;;;;;65.60;56.00;;;;;19.33;60.63;95601.09;5045591;28;8904;-60
2022/12/23 05:44:47;;;;;;;;;65.60;56.00;;;;;19.34;59.49;95597.13;5043529;28;8846;-59
2022/12/23 05:47:14;;;;;;;;;68.40;58.80;;;;;19.34;58.66;95595.13;5042511;28;8846;-59
2022/12/23 05:49:41;;;;;;;;;65.20;56.20;;;;;19.33;58.29;95604.63;5049269;28;8837;-59
2022/12/23 05:52:07;;;;;;;;;68.00;58.00;;;;;19.35;58.36;95604.22;5047528;28;8848;-59
2022/12/23 05:54:34;;;;;;;;;61.60;53.60;;;;;19.34;58.19;95603.44;5047964;28;8855;-60
2022/12/23 05:57:01;;;;;;;;;66.00;56.20;;;;;19.35;58.24;95607.00;5042033;28;8865;-60
2022/12/23 05:59:28;;;;;;;;;63.20;54.00;;;;;19.36;58.18;95605.78;5046371;28;8862;-59
2022/12/23 06:01:57;;;;;;;;;64.80;55.40;;;;;19.36;58.15;95614.84;5049973;28;8873;-60
2022/12/23 06:04:24;;;;;;;;;67.00;57.60;;;;;19.38;58.20;95619.97;5036658;28;8853;-60
2022/12/23 06:06:51;;;;;;;;;61.60;53.60;;;;;19.39;58.22;95616.00;5050287;28;8838;-60
2022/12/23 06:09:18;;;;;;;;;67.80;58.20;;;;;19.39;58.10;95622.31;5043889;28;8869;-59
2022/12/23 06:11:45;;;;;;;;;69.00;59.00;;;;;19.42;57.47;95626.22;5046181;28;8859;-59
2022/12/23 06:14:12;;;;;;;;;67.20;57.40;;;;;19.55;57.53;95632.72;5049830;28;8828;-63
2022/12/23 06:16:39;;;;;;;;;64.40;55.00;;;;;19.63;56.76;95630.66;5044790;28;8838;-59
2022/12/23 06:19:06;;;;;;;;;66.60;56.60;;;;;19.61;56.30;95636.59;5047606;28;8907;-60
2022/12/23 06:21:33;;;;;;;;;60.20;52.20;;;;;19.61;55.44;95638.56;5041523;28;8846;-62
2022/12/23 06:23:59;;;;;;;;;58.00;51.20;;;;;19.62;55.19;95642.91;5035994;28;9029;-60
2022/12/23 06:26:26;;;;;;;;;58.00;51.00;;;;;19.65;55.32;95638.50;5043244;28;8853;-60
2022/12/23 06:28:53;;;;;;;;;63.60;54.60;;;;;19.66;55.36;95640.09;5047394;28;8866;-60
2022/12/23 06:31:20;;;;;;;;;61.60;53.40;;;;;19.65;55.58;95632.97;5042616;28;8868;-63
2022/12/23 06:33:47;;;;;;;;;62.80;54.00;;;;;19.61;55.19;95624.75;5046304;28;8865;-60
2022/12/23 06:36:14;;;;;;;;;57.40;50.40;;;;;19.68;55.19;95632.16;5039282;28;10003;-63
2022/12/23 06:38:40;;;;;;;;;61.80;53.20;;;;;19.71;55.46;95636.84;5043243;28;8856;-60
2022/12/23 06:41:08;;;;;;;;;60.20;52.60;;;;;19.86;56.82;95646.50;5042306;28;8970;-59
2022/12/23 06:43:35;;;;;;;;;58.00;51.00;;;;;19.80;56.88;95648.16;5041202;28;9606;-59
2022/12/23 06:46:01;;;;;;;;;57.20;50.40;;;;;19.76;56.84;95639.13;5039535;28;8843;-60
2022/12/23 06:48:28;;;;;;;;;59.40;52.20;;;;;19.73;56.85;95628.91;5042722;28;8852;-60
2022/12/23 06:50:55;;;;;;;;;61.20;53.00;;;;;19.71;57.05;95620.22;5043382;28;8847;-60
2022/12/23 06:53:22;;;;;;;;;60.80;52.80;;;;;19.70;58.12;95615.94;5040854;28;8864;-62
2022/12/23 06:55:49;;;;;;;;;57.80;50.40;;;;;19.69;59.25;95608.81;5045814;28;8848;-59
2022/12/23 06:58:16;;;;;;;;;56.60;49.60;;;;;19.67;57.97;95600.16;5042005;28;8858;-60
2022/12/23 07:00:43;;;;;;;;;64.80;55.80;;;;;19.62;58.53;95596.66;5044583;28;9856;-61
2022/12/23 07:03:10;;;;;;;;;60.60;52.20;;;;;19.57;58.38;95597.16;5049528;28;8895;-60
2022/12/23 07:05:37;;;;;;;;;59.60;51.40;;;;;19.53;58.61;95585.38;5041871;28;8847;-62
2022/12/23 07:08:04;;;;;;;;;65.20;56.00;;;;;19.52;57.76;95605.94;5048879;28;8851;-62
2022/12/23 07:10:32;;;;;;;;;60.00;52.00;;;;;19.48;58.30;95594.13;5045267;28;8876;-61
2022/12/23 07:13:00;;;;;;;;;60.80;52.80;;;;;19.43;57.54;95597.38;5048302;28;8878;-61
2022/12/23 07:15:27;;;;;;;;;65.00;55.80;;;;;19.41;57.78;95599.78;5050968;28;8923;-61
2022/12/23 07:17:54;;;;;;;;;60.80;52.40;;;;;19.40;57.38;95612.03;5050644;28;8874;-61
2022/12/23 07:20:20;;;;;;;;;61.60;53.40;;;;;19.36;57.12;95612.09;5046788;28;8885;-61
2022/12/23 07:22:49;;;;;;;;;66.60;57.60;;;;;19.35;57.35;95632.63;5052475;28;8852;-61
2022/12/23 07:25:15;;;;;;;;;64.00;55.20;;;;;19.35;57.24;95623.56;5051060;28;8857;-61
2022/12/23 07:27:42;;;;;;;;;63.60;55.00;;;;;19.32;57.25;95625.16;5048115;28;10075;-61
2022/12/23 07:30:09;;;;;;;;;65.40;56.00;;;;;19.32;56.88;95624.41;5045606;28;9619;-61
2022/12/23 07:32:36;;;;;;;;;58.40;51.40;;;;;19.30;56.73;95636.66;5047809;28;9551;-61
2022/12/23 07:35:03;;;;;;;;;63.60;54.80;;;;;19.29;57.00;95629.56;5054763;28;8824;-62
2022/12/23 07:37:30;;;;;;;;;60.00;52.00;;;;;19.28;56.71;95633.50;5051378;28;9543;-61
2022/12/23 07:39:57;;;;;;;;;60.40;52.40;;;;;19.29;56.61;95631.56;5043098;28;9528;-62
2022/12/23 07:42:32;;;;;;;;;59.60;52.00;;;;;19.27;56.52;95637.50;5056500;28;9657;-62
2022/12/23 07:45:11;;;;;;;;;63.20;54.80;;;;;19.26;56.66;95633.16;5044929;28;8851;-62
2022/12/23 07:47:38;;;;;;;;;67.40;58.00;;;;;19.26;56.72;95649.75;5042782;28;8870;-61
2022/12/23 07:50:06;;;;;;;;;60.00;52.20;;;;;19.25;56.47;95656.47;5047655;28;8842;-62
2022/12/23 07:52:33;;;;;;;;;58.00;50.60;;;;;19.25;56.70;95659.25;5043342;28;8921;-62
2022/12/23 07:55:00;;;;;;;;;63.20;54.40;;;;;19.25;56.59;95659.25;5050651;28;9413;-61
2022/12/23 07:57:28;;;;;;;;;63.60;54.40;;;;;19.25;56.38;95655.69;5048610;28;8975;-61
2022/12/23 07:59:54;;;;;;;;;60.60;52.00;;;;;19.25;56.85;95655.69;5052918;28;9765;-61
2022/12/23 08:02:23;;;;;;;;;62.00;53.60;;;;;19.23;56.19;95663.63;5045942;28;8965;-61
2022/12/23 08:04:51;;;;;;;;;60.00;52.20;;;;;19.23;56.30;95677.44;5049994;28;8832;-62
2022/12/23 08:07:18;;;;;;;;;63.60;55.00;;;;;19.22;56.65;95684.94;5043567;28;8842;-62
2022/12/23 08:09:44;;;;;;;;;66.20;56.00;;;;;19.23;56.59;95677.44;5048397;28;8872;-62
2022/12/23 08:12:11;;;;;;;;;62.00;53.00;;;;;19.23;56.55;95681.00;5038297;28;8973;-61
2022/12/23 08:14:38;;;;;;;;;60.00;52.40;;;;;19.23;56.81;95680.22;5045305;28;9571;-61
2022/12/23 08:17:05;;;;;;;;;60.20;52.20;;;;;19.22;56.42;95678.66;5059249;28;8863;-61
2022/12/23 08:19:32;;;;;;;;;65.00;56.00;;;;;19.21;56.41;95683.38;5046743;28;8900;-61
2022/12/23 08:21:59;;;;;;;;;61.80;53.80;;;;;19.21;56.31;95683.38;5041161;28;8941;-61
2022/12/23 08:24:26;;;;;;;;;64.00;55.40;;;;;19.20;56.10;95684.56;5039455;28;8866;-61
2022/12/23 08:26:53;;;;;;;;;61.80;53.80;;;;;19.19;56.21;95690.53;5050222;28;8848;-62
2022/12/23 08:29:20;;;;;;;;;61.00;53.00;;;;;19.17;56.21;95690.94;5040622;28;9700;-62
2022/12/23 08:31:49;;;;;;;;;66.80;56.60;;;;;19.15;56.49;95693.34;5047686;28;8858;-62
2022/12/23 08:34:18;;;;;;;;;60.40;52.20;;;;;19.13;56.54;95692.97;5039653;28;9739;-61
2022/12/23 08:36:45;;;;;;;;;59.20;52.00;;;;;19.09;56.28;95693.00;5047215;28;8898;-60
2022/12/23 08:39:11;;;;;;;;;62.60;54.00;;;;;19.08;56.25;95685.13;5045942;28;9698;-61
2022/12/23 08:41:42;;;;;;;;;65.20;56.00;;;;;19.07;56.04;95684.34;5047527;28;9864;-61
2022/12/23 08:44:10;;;;;;;;;59.60;52.00;;;;;19.07;56.17;95694.63;5051175;28;8828;-60
2022/12/23 08:46:37;;;;;;;;;60.60;52.40;;;;;19.08;56.28;95696.19;5044952;28;10464;-60
2022/12/23 08:49:05;;;;;;;;;64.00;55.40;;;;;19.07;56.74;95700.91;5040757;28;8862;-73
2022/12/23 08:51:32;;;;;;;;;58.40;51.40;;;;;19.08;56.13;95698.97;5039462;28;9442;-63
2022/12/23 08:54:00;;;;;;;;;58.80;51.20;;;;;19.07;56.20;95695.41;5039265;28;9492;-62
2022/12/23 08:56:30;;;;;;;;;62.00;53.60;;;;;19.05;56.29;95694.25;5037918;28;9304;-62
2022/12/23 08:58:57;;;;;;;;;59.20;51.00;;;;;19.03;55.85;95702.97;5044639;28;8830;-62
2022/12/23 09:01:26;;;;;;;;;57.40;50.40;;;;;19.07;56.07;95700.91;5038752;28;9300;-62
2022/12/23 09:03:54;;;;;;;;;57.40;50.60;;;;;19.06;56.25;95704.91;5042111;28;8862;-63
2022/12/23 09:06:23;;;;;;;;;60.80;51.60;;;;;19.06;55.93;95695.81;5043862;28;8858;-63
2022/12/23 09:08:56;;;;;;;;;57.40;50.80;;;;;19.05;56.17;95705.31;5040393;28;9382;-64
2022/12/23 09:11:26;;;;;;;;;57.40;50.20;;;;;19.04;56.06;95703.72;5046939;28;8854;-62
2022/12/23 09:13:53;;;;;;;;;61.20;52.20;;;;;19.05;56.33;95705.31;5045020;28;8832;-62
2022/12/23 09:16:21;;;;;;;;;61.80;54.00;;;;;19.07;56.87;95711.97;5036569;28;8858;-62
2022/12/23 09:18:48;;;;;;;;;63.00;54.80;;;;;19.11;57.03;95715.50;5043213;28;9055;-63
2022/12/23 09:21:20;;;;;;;;;59.80;51.20;;;;;19.14;57.69;95717.44;5045679;28;9355;-62
2022/12/23 09:23:48;;;;;;;;;63.40;55.20;;;;;19.18;57.98;95716.59;5043701;28;10121;-63
2022/12/23 09:26:24;;;;;;;;;63.80;55.00;;;;;19.22;58.02;95714.59;5043602;28;9560;-63
2022/12/23 09:28:51;;;;;;;;;59.20;51.60;;;;;19.23;58.01;95727.97;5049790;28;8822;-62
2022/12/23 09:31:19;;;;;;;;;61.80;54.00;;;;;19.25;58.29;95720.06;5040719;28;8854;-63
2022/12/23 09:33:48;;;;;;;;;64.80;55.40;;;;;19.27;58.32;95731.50;5042697;28;9431;-63
2022/12/23 09:36:16;;;;;;;;;63.40;54.80;;;;;19.29;58.24;95736.59;5034443;28;8844;-62
2022/12/23 09:38:43;;;;;;;;;64.20;55.20;;;;;19.31;58.53;95734.22;5058750;28;8878;-62
2022/12/23 09:41:10;;;;;;;;;59.40;51.80;;;;;19.32;58.60;95729.44;5036420;28;8846;-64
2022/12/23 09:43:50;;;;;;;;;57.60;50.60;;;;;19.33;58.38;95736.56;5046709;28;10075;-63
2022/12/23 09:46:19;;;;;;;;;61.40;52.80;;;;;19.34;58.58;95741.66;5046587;28;9794;-62
2022/12/23 09:48:59;;;;;;;;;62.20;53.40;;;;;19.34;58.63;95738.13;5044963;28;8977;-63
2022/12/23 09:51:28;;;;;;;;;62.80;54.20;;;;;19.35;58.95;95731.41;5043642;28;8856;-63
2022/12/23 09:54:03;;;;;;;;;60.20;51.80;;;;;19.35;58.86;95740.47;5080672;28;8868;-62
2022/12/23 09:56:35;;;;;;;;;64.00;55.20;;;;;19.36;58.97;95732.97;5050084;28;8840;-63
2022/12/23 09:59:43;;;;;;;;;66.40;57.00;;;;;19.37;58.90;95746.38;5045725;28;8869;-62
2022/12/23 10:02:10;;;;;;;;;65.00;56.00;;;;;19.38;58.87;95747.94;4994023;28;8860;-63
2022/12/23 10:04:49;;;;;;;;;59.40;51.20;;;;;19.38;58.83;95749.91;5001745;28;9681;-62
2022/12/23 10:07:26;;;;;;;;;58.00;51.00;;;;;19.39;58.88;95743.19;5000660;28;8876;-61
2022/12/23 10:09:56;;;;;;;;;57.20;50.20;;;;;19.39;59.15;95740.41;5013037;28;8864;-61
2022/12/23 10:12:47;;;;;;;;;61.40;53.00;;;;;19.39;59.27;95738.44;5003229;28;8859;-70
2022/12/23 10:15:42;;;;;;;;;57.60;50.60;;;;;19.39;59.39;95740.41;4996574;28;9221;-69
2022/12/23 10:18:24;;;;;;;;;58.20;51.20;;;;;19.39;59.54;95748.72;4998975;28;8953;-67
2022/12/23 10:21:06;;;;;;;;;58.80;51.00;;;;;19.37;59.57;95751.91;5005081;28;9015;-73
2022/12/23 10:23:38;;;;;;;;;58.20;51.20;;;;;19.36;59.69;95744.03;5003292;28;8877;-75
2022/12/23 10:29:43;;;;;;;;;57.20;50.20;;;;;19.39;59.98;95748.72;4997037;28;9848;-69
2022/12/23 10:32:24;;;;;;;;;61.20;53.60;;;;;19.54;60.55;95746.53;5015845;28;8847;-63
2022/12/23 10:35:32;;;;;;;;;58.00;51.00;;;;;19.58;59.02;95744.50;5042414;28;8967;-62
2022/12/23 10:38:31;;;;;;;;;57.80;51.00;;;;;19.61;61.04;95741.72;5057027;28;9582;-61
2022/12/23 10:41:14;;;;;;;;;60.20;52.20;;;;;19.65;59.81;95746.38;5048286;28;9952;-63
2022/12/23 10:44:21;;;;;;;;;63.60;54.60;;;;;19.58;58.25;95744.50;5044748;28;8854;-62
2022/12/23 10:47:04;;;;;;;;;58.60;51.60;;;;;19.58;58.34;95750.84;5060126;28;8882;-62
2022/12/23 10:49:44;;;;;;;;;63.60;54.60;;;;;19.59;58.10;95752.41;5052315;28;8987;-62
2022/12/23 10:52:17;;;;;;;;;64.00;54.80;;;;;19.62;57.80;95745.25;5056475;28;8819;-62
2022/12/23 10:54:46;;;;;;;;;65.20;56.00;;;;;19.64;57.79;95740.09;5054192;28;8856;-62
2022/12/23 10:57:16;;;;;;;;;64.00;55.20;;;;;19.64;57.34;95744.81;5045719;28;8855;-63
2022/12/23 10:59:43;;;;;;;;;63.00;54.00;;;;;19.50;56.17;95738.31;5052383;28;8991;-62
2022/12/23 11:02:10;;;;;;;;;62.60;53.80;;;;;19.55;56.29;95734.28;5050106;28;8822;-62
2022/12/23 11:04:46;;;;;;;;;62.40;54.00;;;;;19.57;56.38;95737.44;5046805;28;8861;-62
2022/12/23 11:07:28;;;;;;;;;57.80;51.40;;;;;19.61;56.50;95740.91;5040032;28;8869;-63
2022/12/23 11:10:19;;;;;;;;;60.40;50.00;;;;;19.64;56.56;95736.53;5043499;28;8854;-63
2022/12/23 11:12:52;;;;;;;;;57.40;50.40;;;;;19.67;56.69;95732.94;5046058;28;8849;-63
2022/12/23 11:15:36;;;;;;;;;58.40;51.00;;;;;19.70;56.64;95734.88;5042729;28;8859;-63
2022/12/23 11:18:16;;;;;;;;;62.20;53.20;;;;;19.71;56.43;95717.84;5040453;28;8991;-62
2022/12/23 11:20:59;;;;;;;;;57.60;50.60;;;;;19.74;56.54;95717.03;5042700;28;8900;-62
2022/12/23 11:23:33;;;;;;;;;62.40;54.40;;;;;19.74;56.59;95719.78;5039822;28;8845;-63
2022/12/23 11:26:04;;;;;;;;;59.80;51.80;;;;;19.79;56.53;95712.97;5043606;28;9635;-63
2022/12/23 11:28:33;;;;;;;;;61.00;53.00;;;;;19.80;56.33;95705.47;5041103;28;8849;-63
2022/12/23 11:31:13;;;;;;;;;67.60;57.80;;;;;19.80;56.15;95703.47;5044769;28;9657;-63
2022/12/23 11:33:51;;;;;;;;;66.20;57.00;;;;;19.82;56.20;95705.84;5041096;28;8841;-63
2022/12/23 11:36:23;;;;;;;;;62.80;53.20;;;;;19.83;56.26;95704.66;5038353;28;8843;-62
2022/12/23 11:39:00;;;;;;;;;67.00;57.80;;;;;19.83;56.40;95693.59;5047452;28;8988;-62
2022/12/23 11:41:33;;;;;;;;;66.20;57.20;;;;;19.83;56.21;95686.06;5056770;28;8926;-63
2022/12/23 11:44:05;;;;;;;;;67.60;58.00;;;;;19.84;56.08;95681.28;5045887;28;8827;-63
2022/12/23 11:46:34;;;;;;;;;65.00;55.80;;;;;19.85;56.01;95680.91;5044645;28;8963;-63
2022/12/23 11:49:12;;;;;;;;;72.60;62.20;;;;;19.85;56.03;95678.16;5045894;28;8943;-63
2022/12/23 11:51:40;;;;;;;;;72.20;61.00;;;;;19.87;55.83;95683.25;5041951;28;8876;-63
2022/12/23 11:54:15;;;;;;;;;67.60;58.60;;;;;19.87;55.95;95675.75;5044823;28;8912;-63
2022/12/23 11:56:42;;;;;;;;;69.40;59.40;;;;;19.87;55.81;95673.00;5042066;28;8865;-63
2022/12/23 11:59:31;;;;;;;;;70.00;59.60;;;;;19.88;55.68;95671.75;5042909;28;8866;-63
2022/12/23 12:02:02;;;;;;;;;70.40;60.20;;;;;19.88;55.83;95669.00;5041892;28;8965;-62
2022/12/23 12:04:34;;;;;;;;;73.60;62.40;;;;;19.89;55.73;95670.56;5045857;28;9000;-62
2022/12/23 12:07:03;;;;;;;;;74.60;62.80;;;;;19.89;55.67;95661.50;5050063;28;8827;-61
2022/12/23 12:09:32;;;;;;;;;73.00;62.00;;;;;19.89;55.26;95661.50;5041463;28;8840;-61
2022/12/23 12:12:06;;;;;;;;;67.80;57.80;;;;;19.88;55.54;95652.38;5050705;28;8865;-62
2022/12/23 12:14:42;;;;;;;;;66.20;56.80;;;;;19.99;56.28;95645.91;5046613;28;9570;-66
2022/12/23 12:17:18;;;;;;;;;65.80;56.00;;;;;19.95;55.99;95640.44;5043177;28;8841;-65